Time;durP1;ratioP1;P1;durP2;ratioP2;P2;SDS_P1;SDS_P2;PMS_P1;PMS_P2;Temp;Humidity;BMP_temperature;BMP_pressure;BME280_temperature;BME280_humidity;BME280_pressure;Samples;Min_cycle;Max_cycle;Signal;HPM_P1;HPM_P2
2021/12/31 00:00:30;;;;;;;12.53;9.60;;;;;;;-143.84;100.00;44066.66;5030093;28;20446;-77
2021/12/31 00:02:57;;;;;;;11.23;8.37;;;;;;;-143.84;100.00;44066.66;5031168;28;21018;-77
2021/12/31 00:05:25;;;;;;;9.63;7.57;;;;;;;-143.84;100.00;44076.19;5031604;28;20519;-78
2021/12/31 00:07:52;;;;;;;11.63;8.73;;;;;;;-143.84;100.00;44068.56;5031497;28;20874;-78
2021/12/31 00:10:19;;;;;;;12.73;8.30;;;;;;;-143.84;100.00;44064.75;5030994;28;20446;-77
2021/12/31 00:12:48;;;;;;;12.90;7.33;;;;;;;-143.84;100.00;44038.09;5030633;28;20872;-77
2021/12/31 00:15:15;;;;;;;9.80;8.00;;;;;;;-143.84;100.00;44043.81;5023700;28;20548;-77
2021/12/31 00:17:42;;;;;;;13.70;9.57;;;;;;;-143.84;100.00;44053.34;5031182;28;20436;-77
2021/12/31 00:20:14;;;;;;;14.10;8.57;;;;;;;-143.84;100.00;44049.53;5031229;28;20439;-77
2021/12/31 00:25:25;;;;;;;13.50;9.50;;;;;;;-143.84;100.00;44059.03;5028917;28;20453;-77
2021/12/31 00:27:53;;;;;;;10.00;7.73;;;;;;;-143.84;100.00;44059.03;5031863;28;20546;-77
2021/12/31 00:30:21;;;;;;;11.20;6.90;;;;;;;-143.84;100.00;44064.75;5031777;28;20449;-78
2021/12/31 00:32:48;;;;;;;6.33;5.73;;;;;;;-143.84;100.00;44064.75;5031622;28;20512;-77
2021/12/31 00:35:16;;;;;;;9.10;8.03;;;;;;;-143.84;100.00;44068.56;5031489;28;20485;-77
2021/12/31 00:37:43;;;;;;;8.83;7.00;;;;;;;-143.84;100.00;44060.94;5031405;28;20765;-77
2021/12/31 00:40:13;;;;;;;12.20;8.07;;;;;;;-143.84;100.00;44040.00;5031474;28;20451;-77
2021/12/31 00:42:41;;;;;;;8.97;7.30;;;;;;;-143.84;100.00;44051.44;5031066;28;20440;-77
2021/12/31 00:45:12;;;;;;;9.27;7.00;;;;;;;-143.84;100.00;44038.09;5031182;28;20489;-77
2021/12/31 00:47:40;;;;;;;9.07;7.63;;;;;;;-143.84;100.00;44040.00;5031173;28;20540;-77
2021/12/31 00:50:08;;;;;;;11.73;7.53;;;;;;;-143.84;100.00;44045.72;5031042;28;20904;-77
2021/12/31 00:52:36;;;;;;;7.80;6.97;;;;;;;-143.84;100.00;44055.25;5030945;28;20444;-77
2021/12/31 00:55:03;;;;;;;8.50;6.60;;;;;;;-143.84;100.00;44057.16;5030850;28;20505;-77
2021/12/31 00:57:31;;;;;;;7.63;6.87;;;;;;;-143.84;100.00;44040.00;5030910;28;20637;-77
2021/12/31 00:59:58;;;;;;;7.23;6.53;;;;;;;-143.84;100.00;44030.50;5030681;28;20431;-77
2021/12/31 01:02:28;;;;;;;5.60;5.10;;;;;;;-143.84;100.00;44022.88;5031236;28;20520;-77
2021/12/31 01:04:56;;;;;;;7.50;6.23;;;;;;;-143.84;100.00;44036.22;5031349;28;20441;-77
2021/12/31 01:07:23;;;;;;;8.67;6.37;;;;;;;-143.84;100.00;44013.38;5030487;28;20445;-77
2021/12/31 01:09:50;;;;;;;8.97;5.83;;;;;;;-143.84;100.00;44011.47;5030976;28;20458;-77
2021/12/31 01:12:17;;;;;;;12.37;5.90;;;;;;;-143.84;100.00;44038.09;5032322;28;20436;-77
2021/12/31 01:14:54;;;;;;;6.67;6.03;;;;;;;-143.84;100.00;44019.06;5034434;28;20554;-77
2021/12/31 01:17:37;;;;;;;7.70;5.10;;;;;;;-143.84;100.00;44001.94;5034387;28;20464;-77
2021/12/31 01:20:07;;;;;;;4.60;4.17;;;;;;;-143.84;100.00;44017.16;5034779;28;20517;-77
2021/12/31 01:22:36;;;;;;;5.93;4.77;;;;;;;-143.84;100.00;44011.47;5034234;28;21005;-77
2021/12/31 01:25:06;;;;;;;5.50;4.90;;;;;;;-143.84;100.00;44020.97;5016697;28;20442;-77
2021/12/31 01:27:34;;;;;;;4.20;3.90;;;;;;;-143.84;100.00;44017.16;5034810;28;20439;-77
2021/12/31 01:30:02;;;;;;;3.70;3.40;;;;;;;-143.84;100.00;44011.47;5034083;28;20829;-77
2021/12/31 01:32:30;;;;;;;3.53;3.23;;;;;;;-143.84;100.00;43998.13;5034070;28;20453;-77
2021/12/31 01:34:57;;;;;;;4.47;4.13;;;;;;;-143.84;100.00;44001.94;5034190;28;20462;-77
2021/12/31 01:37:26;;;;;;;4.93;3.90;;;;;;;-143.84;100.00;44007.66;5033941;28;20859;-77
2021/12/31 01:39:54;;;;;;;3.50;3.20;;;;;;;-143.84;100.00;43998.13;5034666;28;20438;-77
2021/12/31 01:42:28;;;;;;;4.20;3.70;;;;;;;-143.84;100.00;44001.94;5034197;28;20764;-78
2021/12/31 01:44:58;;;;;;;3.90;3.60;;;;;;;-143.84;100.00;43981.00;5033856;28;20422;-78
2021/12/31 01:47:34;;;;;;;3.87;3.50;;;;;;;-143.84;99.69;43952.44;5033986;28;20438;-78
2021/12/31 01:50:06;;;;;;;4.10;3.80;;;;;;;-143.84;99.65;43981.00;5033884;28;20925;-77
2021/12/31 01:52:35;;;;;;;3.63;3.33;;;;;;;-143.84;99.70;43971.47;5034072;28;20532;-77
2021/12/31 01:55:06;;;;;;;3.73;3.20;;;;;;;-143.84;99.60;43967.69;5033914;28;20450;-77
2021/12/31 01:57:34;;;;;;;3.17;2.97;;;;;;;-143.84;99.71;43979.09;5033984;28;20493;-77
2021/12/31 02:00:02;;;;;;;3.47;3.23;;;;;;;-143.84;99.47;43971.47;5016185;28;20443;-77
2021/12/31 02:02:29;;;;;;;3.70;3.40;;;;;;;-143.84;99.20;43971.47;5033736;28;20868;-77
2021/12/31 02:04:56;;;;;;;3.30;3.10;;;;;;;-143.84;99.21;43963.88;5033669;28;20447;-77
2021/12/31 02:07:23;;;;;;;3.47;3.10;;;;;;;-143.84;99.68;43971.47;5034017;28;20443;-77
2021/12/31 02:09:54;;;;;;;3.33;3.13;;;;;;;-143.84;99.51;43979.09;5033086;28;20470;-77
2021/12/31 02:12:22;;;;;;;3.50;3.30;;;;;;;-143.84;99.97;43986.72;5016308;28;20522;-77
2021/12/31 02:14:50;;;;;;;3.13;3.00;;;;;;;-143.84;99.57;43975.28;5032857;28;20553;-77
2021/12/31 02:17:17;;;;;;;3.03;2.83;;;;;;;-143.84;100.00;43990.53;5033382;28;20496;-77
2021/12/31 02:19:59;;;;;;;3.40;3.10;;;;;;;-143.84;99.67;43992.41;5033469;28;20987;-77
2021/12/31 02:22:27;;;;;;;2.80;2.60;;;;;;;-143.84;99.65;43986.72;5033455;28;20446;-77
2021/12/31 02:24:56;;;;;;;3.37;3.10;;;;;;;-143.84;99.86;43986.72;5032180;28;20928;-77
2021/12/31 02:27:24;;;;;;;4.40;3.73;;;;;;;-143.84;99.32;43965.78;5042093;28;20489;-78
2021/12/31 02:29:51;;;;;;;4.20;3.80;;;;;;;-143.84;98.58;43937.22;5053002;28;20474;-77
2021/12/31 02:32:19;;;;;;;9.03;8.10;;;;;;;-143.84;97.54;43929.59;5052593;28;20441;-77
2021/12/31 02:34:47;;;;;;;6.90;6.20;;;;;;;-143.84;97.08;43906.75;5052856;28;20441;-78
2021/12/31 02:37:16;;;;;;;10.23;8.70;;;;;;;-143.84;96.00;43889.63;5053395;28;20431;-77
2021/12/31 02:39:44;;;;;;;10.00;9.00;;;;;;;-143.84;95.77;43891.53;5053104;28;20876;-77
2021/12/31 02:42:12;;;;;;;16.10;9.10;;;;;;;-143.84;95.47;43880.13;5052960;28;20515;-77
2021/12/31 02:44:40;;;;;;;13.93;10.47;;;;;;;-143.84;95.49;43845.84;5052882;28;20511;-77
2021/12/31 02:47:08;;;;;;;11.10;8.73;;;;;;;-143.84;95.43;43864.88;5052571;28;20448;-77
2021/12/31 02:49:39;;;;;;;6.70;6.00;;;;;;;-143.84;96.10;43872.50;5052295;28;20515;-77
2021/12/31 02:52:10;;;;;;;12.50;9.80;;;;;;;-143.84;96.56;43923.91;5052483;28;20866;-77
2021/12/31 02:54:43;;;;;;;9.87;8.47;;;;;;;-143.84;96.99;43882.00;5052432;28;20445;-77
2021/12/31 02:57:11;;;;;;;8.37;6.93;;;;;;;-143.84;96.98;43908.66;5052235;28;20492;-77
2021/12/31 02:59:38;;;;;;;4.50;4.10;;;;;;;-143.84;97.41;43920.09;5052529;28;20807;-77
2021/12/31 03:02:06;;;;;;;12.33;10.23;;;;;;;-143.84;97.92;43941.03;5052052;28;20792;-77
2021/12/31 03:04:36;;;;;;;6.93;6.17;;;;;;;-143.84;97.75;43914.38;5052180;28;20442;-77
2021/12/31 03:07:05;;;;;;;5.50;4.87;;;;;;;-143.84;98.49;43948.63;5052197;28;20504;-78
2021/12/31 03:09:33;;;;;;;5.43;4.73;;;;;;;-143.84;98.96;43969.59;5052833;28;20833;-77
2021/12/31 03:12:02;;;;;;;4.73;4.33;;;;;;;-143.84;99.19;43975.28;5052470;28;20434;-77
2021/12/31 03:14:30;;;;;;;5.90;5.30;;;;;;;-143.84;99.62;43992.41;5051961;28;21015;-77
2021/12/31 03:16:59;;;;;;;6.73;5.03;;;;;;;-143.84;99.60;43969.59;5052336;28;20457;-77
2021/12/31 03:19:27;;;;;;;5.13;4.73;;;;;;;-143.84;99.87;44000.03;5052205;28;20943;-78
2021/12/31 03:21:54;;;;;;;5.37;4.67;;;;;;;-143.84;100.00;43988.63;5052027;28;20444;-78
2021/12/31 03:24:21;;;;;;;6.07;4.67;;;;;;;-143.84;100.00;43990.53;5052223;28;20862;-78
2021/12/31 03:26:48;;;;;;;5.17;4.70;;;;;;;-143.84;100.00;44009.56;5052303;28;20434;-78
2021/12/31 03:29:17;;;;;;;4.60;4.20;;;;;;;-143.84;100.00;44005.75;5051944;28;20485;-77
2021/12/31 03:31:44;;;;;;;5.53;5.03;;;;;;;-143.84;100.00;44005.75;5051962;28;20438;-77
2021/12/31 03:34:13;;;;;;;4.90;4.50;;;;;;;-143.84;100.00;44024.78;5051726;28;20805;-77
2021/12/31 03:36:41;;;;;;;5.17;4.53;;;;;;;-143.84;100.00;44020.97;5051582;28;20947;-77
2021/12/31 03:39:09;;;;;;;5.30;4.80;;;;;;;-143.84;100.00;44007.66;5051667;28;20507;-78
2021/12/31 03:41:36;;;;;;;5.10;4.67;;;;;;;-143.84;100.00;44015.25;5051659;28;20441;-77
2021/12/31 03:44:03;;;;;;;4.87;4.47;;;;;;;-143.84;100.00;44026.69;5051495;28;20473;-77
2021/12/31 03:46:32;;;;;;;5.23;4.73;;;;;;;-143.84;100.00;44026.69;5051469;28;20953;-78
2021/12/31 03:48:59;;;;;;;4.80;4.40;;;;;;;-143.84;100.00;44051.44;5051450;28;20508;-77
2021/12/31 03:51:27;;;;;;;4.80;4.33;;;;;;;-143.84;100.00;44074.28;5051608;28;20433;-78
2021/12/31 03:53:54;;;;;;;4.50;4.10;;;;;;;-143.84;100.00;44064.75;5051375;28;20503;-77
2021/12/31 03:56:23;;;;;;;4.80;4.37;;;;;;;-143.84;100.00;44043.81;5051238;28;20464;-77
2021/12/31 03:58:50;;;;;;;4.67;4.27;;;;;;;-143.84;100.00;44066.66;5051492;28;20452;-77
2021/12/31 04:01:17;;;;;;;3.90;3.60;;;;;;;-143.84;100.00;44064.75;5051786;28;20488;-78
2021/12/31 04:03:46;;;;;;;5.60;3.50;;;;;;;-143.84;100.00;44055.25;5051227;28;20442;-78
2021/12/31 04:06:13;;;;;;;5.83;4.70;;;;;;;-143.84;100.00;44060.94;5051531;28;20446;-78
2021/12/31 04:08:40;;;;;;;5.60;4.13;;;;;;;-143.84;100.00;44043.81;5051554;28;20477;-77
2021/12/31 04:11:10;;;;;;;5.50;5.00;;;;;;;-143.84;100.00;44043.81;5050178;28;20515;-78
2021/12/31 04:13:37;;;;;;;5.00;4.60;;;;;;;-143.84;100.00;44032.41;5050342;28;20543;-77
2021/12/31 04:16:05;;;;;;;4.60;4.20;;;;;;;-143.84;100.00;44036.22;5052064;28;20456;-77
2021/12/31 04:18:32;;;;;;;4.13;3.77;;;;;;;-143.84;100.00;44040.00;5052070;28;20433;-77
2021/12/31 04:21:01;;;;;;;4.40;4.00;;;;;;;-143.84;100.00;44032.41;5051746;28;20463;-77
2021/12/31 04:23:34;;;;;;;3.90;3.67;;;;;;;-143.84;100.00;44022.88;5051543;28;21006;-78
2021/12/31 04:26:02;;;;;;;4.20;3.90;;;;;;;-143.84;100.00;44019.06;5051883;28;20445;-77
2021/12/31 04:28:30;;;;;;;4.30;4.00;;;;;;;-143.84;100.00;44015.25;5051548;28;20464;-77
2021/12/31 04:30:58;;;;;;;3.83;3.43;;;;;;;-143.84;100.00;44013.38;5051652;28;20429;-77
2021/12/31 04:33:25;;;;;;;3.77;3.50;;;;;;;-143.84;100.00;44019.06;5051826;28;20442;-78
2021/12/31 04:35:53;;;;;;;4.77;4.37;;;;;;;-143.84;100.00;44026.69;5050147;28;20950;-76
2021/12/31 04:38:21;;;;;;;4.47;4.17;;;;;;;-143.84;100.00;44011.47;5050189;28;20923;-76
2021/12/31 04:40:48;;;;;;;5.57;4.73;;;;;;;-143.84;99.94;43998.13;5050723;28;20441;-77
2021/12/31 04:43:16;;;;;;;5.50;4.93;;;;;;;-143.84;99.65;43990.53;5051008;28;20434;-77
2021/12/31 04:45:43;;;;;;;4.57;4.17;;;;;;;-143.84;99.36;43969.59;5051523;28;20497;-77
2021/12/31 04:48:10;;;;;;;5.00;4.50;;;;;;;-143.84;98.51;43948.63;5053906;28;20437;-77
2021/12/31 04:50:37;;;;;;;5.30;4.60;;;;;;;-143.84;97.83;43918.19;5055196;28;20538;-77
2021/12/31 04:53:05;;;;;;;4.87;4.50;;;;;;;-143.84;97.50;43981.00;5055158;28;20437;-77
2021/12/31 04:55:34;;;;;;;5.13;4.53;;;;;;;-143.84;97.67;43925.78;5055147;28;20445;-77
2021/12/31 04:58:01;;;;;;;5.10;4.67;;;;;;;-143.84;98.03;43918.19;5055529;28;20499;-77
2021/12/31 05:00:28;;;;;;;5.30;4.67;;;;;;;-143.84;98.26;43946.75;5055067;28;20445;-77
2021/12/31 05:02:56;;;;;;;4.63;4.23;;;;;;;-143.84;98.73;43939.13;5055233;28;20441;-78
2021/12/31 05:05:23;;;;;;;4.47;4.17;;;;;;;-143.84;98.77;43963.88;5055084;28;20954;-77
2021/12/31 05:07:50;;;;;;;5.07;4.57;;;;;;;-143.84;99.09;43954.34;5054818;28;20441;-78
2021/12/31 05:10:18;;;;;;;4.37;3.97;;;;;;;-143.84;98.97;43965.78;5055170;28;20526;-77
2021/12/31 05:12:52;;;;;;;4.37;3.97;;;;;;;-143.84;99.02;43960.06;5054661;28;20438;-77
2021/12/31 05:15:25;;;;;;;5.17;4.70;;;;;;;-143.84;99.03;43971.47;5054315;28;20527;-77
2021/12/31 05:17:52;;;;;;;7.63;4.90;;;;;;;-143.84;98.81;43971.47;5054485;28;20434;-77
2021/12/31 05:20:20;;;;;;;6.00;5.40;;;;;;;-143.84;99.03;43979.09;5054448;28;20438;-77
2021/12/31 05:22:47;;;;;;;5.70;5.20;;;;;;;-143.84;98.63;43961.97;5036776;28;20498;-77
2021/12/31 05:25:16;;;;;;;5.67;5.17;;;;;;;-143.84;99.12;43971.47;5054879;28;20418;-77
2021/12/31 05:27:44;;;;;;;7.00;6.13;;;;;;;-143.84;98.80;43973.38;5053797;28;20449;-77
2021/12/31 05:30:13;;;;;;;7.60;5.07;;;;;;;-143.84;98.64;43950.53;5054719;28;20465;-77
2021/12/31 05:32:41;;;;;;;7.63;6.77;;;;;;;-143.84;98.83;43939.13;5053886;28;20453;-77
2021/12/31 05:35:09;;;;;;;6.80;6.20;;;;;;;-143.84;99.12;43971.47;5053904;28;20849;-77
2021/12/31 05:37:36;;;;;;;6.83;6.13;;;;;;;-143.84;98.80;43952.44;5054541;28;20452;-77
2021/12/31 05:40:04;;;;;;;7.10;6.40;;;;;;;-143.84;98.66;43956.25;5054383;28;21305;-77
2021/12/31 05:42:31;;;;;;;6.37;5.73;;;;;;;-143.84;98.88;43956.25;5053955;28;20438;-77
2021/12/31 05:44:58;;;;;;;7.27;6.50;;;;;;;-143.84;98.89;43961.97;5054057;28;20449;-77
2021/12/31 05:47:27;;;;;;;6.90;6.27;;;;;;;-143.84;99.26;43979.09;5053577;28;20514;-77
2021/12/31 05:49:54;;;;;;;7.13;5.87;;;;;;;-143.84;99.15;43960.06;5053629;28;20473;-77
2021/12/31 05:52:21;;;;;;;6.00;5.50;;;;;;;-143.84;99.21;43969.59;5054032;28;20905;-77
2021/12/31 05:54:49;;;;;;;5.57;5.00;;;;;;;-143.84;99.34;43960.06;5053709;28;20512;-77
2021/12/31 05:57:16;;;;;;;7.40;6.37;;;;;;;-143.84;99.45;43971.47;5053667;28;20453;-78
2021/12/31 05:59:44;;;;;;;10.07;8.00;;;;;;;-143.84;99.76;43979.09;5053808;28;20449;-78
2021/12/31 06:02:11;;;;;;;9.33;7.87;;;;;;;-143.84;99.88;43979.09;5054350;28;20421;-78
2021/12/31 06:04:39;;;;;;;7.00;5.30;;;;;;;-143.84;99.93;43990.53;5053810;28;20869;-77
2021/12/31 06:07:07;;;;;;;5.80;5.20;;;;;;;-143.84;100.00;43994.31;5053723;28;20445;-78
2021/12/31 06:09:34;;;;;;;5.77;5.23;;;;;;;-143.84;100.00;43979.09;5052912;28;20485;-77
2021/12/31 06:12:02;;;;;;;6.07;5.47;;;;;;;-143.84;100.00;43992.41;5053120;28;20446;-77
2021/12/31 06:14:31;;;;;;;6.00;4.97;;;;;;;-143.84;100.00;44007.66;5045489;28;20485;-77
2021/12/31 06:17:05;;;;;;;7.10;6.10;;;;;;;-143.84;100.00;44003.84;5053362;28;21118;-77
2021/12/31 06:19:32;;;;;;;8.30;6.77;;;;;;;-143.84;100.00;44026.69;5053261;28;20456;-79
2021/12/31 06:22:01;;;;;;;7.83;5.80;;;;;;;-143.84;100.00;44030.50;5053134;28;20495;-78
2021/12/31 06:24:28;;;;;;;6.77;6.13;;;;;;;-143.84;100.00;44028.59;5052765;28;20484;-77
2021/12/31 06:26:56;;;;;;;8.70;5.30;;;;;;;-143.84;100.00;44024.78;5052551;28;20449;-77
2021/12/31 06:29:24;;;;;;;7.47;6.67;;;;;;;-143.84;100.00;44026.69;5053116;28;20485;-78
2021/12/31 06:31:51;;;;;;;6.83;5.83;;;;;;;-143.84;100.00;44013.38;5053249;28;20449;-77
2021/12/31 06:34:18;;;;;;;8.53;6.70;;;;;;;-143.84;100.00;44020.97;5053424;28;20430;-77
2021/12/31 06:36:45;;;;;;;8.57;7.00;;;;;;;-143.84;100.00;44017.16;5053398;28;20438;-77
2021/12/31 06:39:14;;;;;;;7.03;6.23;;;;;;;-143.84;100.00;44038.09;5053081;28;20442;-77
2021/12/31 06:41:41;;;;;;;7.30;6.10;;;;;;;-143.84;100.00;44034.31;5052972;28;20802;-77
2021/12/31 06:44:08;;;;;;;6.63;5.83;;;;;;;-143.84;100.00;44028.59;5052792;28;20531;-77
2021/12/31 06:46:35;;;;;;;5.80;5.20;;;;;;;-143.84;100.00;44020.97;5053545;28;20433;-77
2021/12/31 06:49:03;;;;;;;8.47;6.80;;;;;;;-143.84;100.00;44030.50;5052710;28;20496;-78
2021/12/31 06:51:30;;;;;;;7.80;6.57;;;;;;;-143.84;100.00;44040.00;5053206;28;20445;-77
2021/12/31 06:53:57;;;;;;;9.90;7.67;;;;;;;-143.84;100.00;44032.41;5052904;28;20907;-77
2021/12/31 06:56:26;;;;;;;11.33;8.70;;;;;;;-143.84;100.00;44032.41;5052926;28;20449;-78
2021/12/31 06:58:53;;;;;;;26.50;16.70;;;;;;;-143.84;100.00;44036.22;5052776;28;20438;-78
2021/12/31 07:01:21;;;;;;;17.57;12.20;;;;;;;-143.84;100.00;44013.38;5052733;28;20425;-78
2021/12/31 07:03:48;;;;;;;8.20;7.40;;;;;;;-143.84;99.86;44001.94;5052794;28;20865;-77
2021/12/31 07:06:15;;;;;;;11.63;10.43;;;;;;;-143.84;99.60;43982.91;5052218;28;20449;-77
2021/12/31 07:08:42;;;;;;;10.63;8.43;;;;;;;-143.84;98.92;43992.41;5052134;28;20504;-77
2021/12/31 07:11:10;;;;;;;12.03;9.97;;;;;;;-143.84;98.04;43935.31;5051711;28;20480;-77
2021/12/31 07:13:38;;;;;;;9.47;7.70;;;;;;;-143.84;97.67;43918.19;5051644;28;20453;-77
2021/12/31 07:16:06;;;;;;;8.33;7.23;;;;;;;-143.84;97.44;43941.03;5051965;28;20430;-77
2021/12/31 07:18:33;;;;;;;12.10;9.10;;;;;;;-143.84;97.50;43906.75;5034529;28;20441;-77
2021/12/31 07:21:00;;;;;;;9.73;7.17;;;;;;;-143.84;97.47;43939.13;5052268;28;20441;-77
2021/12/31 07:23:27;;;;;;;8.07;6.77;;;;;;;-143.84;96.98;43902.97;5052621;28;20479;-77
2021/12/31 07:25:54;;;;;;;9.23;7.60;;;;;;;-143.84;97.15;43906.75;5052119;28;20438;-77
2021/12/31 07:28:22;;;;;;;9.10;7.70;;;;;;;-143.84;96.94;43897.25;5051519;28;20430;-77
2021/12/31 07:30:51;;;;;;;9.50;7.40;;;;;;;-143.84;96.96;43914.38;5051400;28;21010;-77
2021/12/31 07:33:19;;;;;;;7.37;6.50;;;;;;;-143.84;96.98;43897.25;5051414;28;20460;-77
2021/12/31 07:35:47;;;;;;;13.33;8.00;;;;;;;-143.84;96.91;43922.00;5051995;28;20436;-77
2021/12/31 07:38:20;;;;;;;10.50;7.50;;;;;;;-143.84;96.76;43895.34;5051687;28;20466;-77
2021/12/31 07:40:48;;;;;;;11.73;9.20;;;;;;;-143.84;96.48;43908.66;5051762;28;20973;-77
2021/12/31 07:43:16;;;;;;;10.20;8.77;;;;;;;-143.84;96.19;43883.91;5051882;28;20460;-77
2021/12/31 07:45:43;;;;;;;10.50;8.90;;;;;;;-143.84;95.62;43891.53;5051670;28;20442;-77
2021/12/31 07:48:12;;;;;;;10.30;8.17;;;;;;;-143.84;95.59;43885.81;5051498;28;20446;-77
2021/12/31 07:50:39;;;;;;;12.70;9.07;;;;;;;-143.84;94.68;43868.69;5051542;28;20500;-77
2021/12/31 07:53:07;;;;;;;9.20;8.07;;;;;;;-143.84;94.40;43883.91;5051955;28;20433;-77
2021/12/31 07:55:36;;;;;;;9.93;8.93;;;;;;;-143.84;94.26;43878.22;5051534;28;20426;-77
2021/12/31 07:58:03;;;;;;;12.83;8.23;;;;;;;-143.84;94.29;43862.97;5051536;28;20961;-77
2021/12/31 08:00:30;;;;;;;9.60;8.60;;;;;;;-143.84;93.70;43882.00;5051142;28;20507;-77
2021/12/31 08:02:58;;;;;;;10.27;8.33;;;;;;;-143.84;93.23;43965.78;5050977;28;20997;-77
2021/12/31 08:05:28;;;;;;;13.13;9.63;;;;;;;-143.84;92.62;43941.03;5050883;28;20456;-77
2021/12/31 08:07:55;;;;;;;11.20;8.53;;;;;;;-143.84;92.71;43979.09;5051203;28;20445;-77
2021/12/31 08:10:23;;;;;;;10.90;7.80;;;;;;;-143.84;92.46;44040.00;5050382;28;20877;-77
2021/12/31 08:12:50;;;;;;;8.60;6.73;;;;;;;-143.84;91.52;44161.84;5050151;28;20439;-77
2021/12/31 08:15:17;;;;;;;7.53;6.83;;;;;;;-143.84;91.07;44289.41;5051587;28;20500;-77
2021/12/31 08:17:44;;;;;;;12.43;7.63;;;;;;;-143.84;91.10;44262.75;5051703;28;20454;-77
2021/12/31 08:20:12;;;;;;;10.93;7.70;;;;;;;-143.84;90.86;44306.53;5052036;28;20442;-77
2021/12/31 08:22:41;;;;;;;9.30;7.90;;;;;;;-143.84;90.38;44418.84;5050720;28;20434;-77
2021/12/31 08:25:09;;;;;;;8.63;7.73;;;;;;;-143.84;90.14;44634.00;5051611;28;20805;-77
2021/12/31 08:27:36;;;;;;;11.93;9.20;;;;;;;-143.84;88.90;44725.38;5051799;28;20880;-77
2021/12/31 08:30:04;;;;;;;11.53;9.07;;;;;;;-143.84;88.96;44734.91;5051159;28;20496;-78
2021/12/31 08:32:31;;;;;;;10.50;8.50;;;;;;;-143.84;88.81;44776.78;5050974;28;20987;-78
2021/12/31 08:34:59;;;;;;;11.00;8.93;;;;;;;-143.84;88.51;44847.22;5051391;28;20431;-78
2021/12/31 08:37:26;;;;;;;9.53;8.57;;;;;;;-143.84;88.20;44864.38;5051421;28;20442;-78
2021/12/31 08:39:57;;;;;;;12.07;9.53;;;;;;;-143.84;87.42;44934.81;5050790;28;20440;-78
2021/12/31 08:42:25;;;;;;;9.90;8.00;;;;;;;-143.84;87.76;44902.44;5050968;28;20447;-78
2021/12/31 08:44:53;;;;;;;12.67;9.43;;;;;;;-143.84;87.59;44911.97;5049541;28;20452;-77
2021/12/31 08:47:20;;;;;;;10.07;8.23;;;;;;;-143.84;86.93;44976.72;5051395;28;20449;-77
2021/12/31 08:49:48;;;;;;;11.30;8.77;;;;;;;-143.84;86.50;45028.13;5050446;28;20436;-74
2021/12/31 08:52:15;;;;;;;11.00;9.63;;;;;;;-143.84;86.14;45001.47;5050672;28;20510;-75
2021/12/31 08:54:43;;;;;;;15.40;9.20;;;;;;;-143.84;84.76;45087.16;5049683;28;20781;-75
2021/12/31 08:57:11;;;;;;;13.57;10.13;;;;;;;-143.84;83.78;45121.44;5049243;28;20814;-76
2021/12/31 08:59:39;;;;;;;15.50;10.60;;;;;;;-143.84;83.43;45127.13;5049286;28;21021;-76
2021/12/31 09:02:06;;;;;;;16.23;12.27;;;;;;;-143.84;83.25;45146.19;5048940;28;20510;-74
2021/12/31 09:04:33;;;;;;;28.13;11.60;;;;;;;-143.84;82.19;45134.75;5050329;28;20441;-77
2021/12/31 09:07:01;;;;;;;15.60;10.80;;;;;;;-143.84;82.27;45138.56;5050415;28;20811;-77
2021/12/31 09:09:28;;;;;;;12.53;9.37;;;;;;;-143.84;81.75;45148.09;5050272;28;20503;-77
2021/12/31 09:11:56;;;;;;;18.93;9.83;;;;;;;-143.84;81.18;45127.13;5050732;28;20488;-77
2021/12/31 09:14:25;;;;;;;14.13;9.97;;;;;;;-143.84;81.66;45136.66;5050377;28;20608;-77
2021/12/31 09:16:53;;;;;;;16.00;9.87;;;;;;;-143.84;81.80;45129.03;5050629;28;20441;-77
2021/12/31 09:19:20;;;;;;;13.63;11.00;;;;;;;-143.84;81.29;45134.75;5050510;28;20922;-77
2021/12/31 09:21:47;;;;;;;12.33;10.90;;;;;;;-143.84;81.84;45115.72;5050657;28;20445;-77
2021/12/31 09:24:14;;;;;;;12.83;10.73;;;;;;;-143.84;82.18;45146.19;5049178;28;20445;-76
2021/12/31 09:26:42;;;;;;;18.47;10.50;;;;;;;-143.84;82.06;45134.75;5048948;28;20453;-75
2021/12/31 09:29:09;;;;;;;13.90;10.00;;;;;;;-143.84;81.87;45169.03;5048642;28;20512;-75
2021/12/31 09:31:37;;;;;;;12.90;10.17;;;;;;;-143.84;82.28;45125.22;5049986;28;20477;-77
2021/12/31 09:34:05;;;;;;;10.67;9.53;;;;;;;-143.84;81.39;45134.75;5052853;28;20866;-77
2021/12/31 09:36:32;;;;;;;9.17;8.13;;;;;;;-143.84;80.26;45119.53;5053964;28;20446;-77
2021/12/31 09:38:59;;;;;;;9.10;7.70;;;;;;;-143.84;79.77;45142.38;5053833;28;20438;-77
2021/12/31 09:41:26;;;;;;;7.70;7.00;;;;;;;-143.84;80.30;45178.56;5053797;28;20452;-77
2021/12/31 09:43:54;;;;;;;9.53;6.60;;;;;;;-143.84;79.54;45146.19;5053982;28;20437;-77
2021/12/31 09:46:21;;;;;;;7.70;6.90;;;;;;;-143.84;79.44;45151.91;5053580;28;20826;-77
2021/12/31 09:48:51;;;;;;;8.30;6.60;;;;;;;-143.84;79.48;45136.66;5053560;28;21029;-77
2021/12/31 09:51:18;;;;;;;8.13;6.80;;;;;;;-143.84;79.49;45136.66;5053400;28;20901;-77
2021/12/31 09:53:45;;;;;;;9.33;7.73;;;;;;;-143.84;79.74;45121.44;5053487;28;20819;-77
2021/12/31 09:56:13;;;;;;;8.67;6.80;;;;;;;-143.84;79.68;45125.22;5053592;28;20519;-77
2021/12/31 09:58:40;;;;;;;7.70;7.00;;;;;;;-143.84;79.86;45172.84;5053381;28;20449;-77
2021/12/31 10:01:09;;;;;;;9.00;7.37;;;;;;;-143.84;78.85;45148.09;5053870;28;20499;-77
2021/12/31 10:03:38;;;;;;;7.67;6.97;;;;;;;-143.84;78.95;45134.75;5053153;28;20466;-77
2021/12/31 10:06:10;;;;;;;6.97;6.30;;;;;;;-143.84;77.26;45148.09;5053368;28;20446;-77
2021/12/31 10:08:42;;;;;;;6.73;5.63;;;;;;;-143.84;75.56;45132.84;5053359;28;20444;-77
2021/12/31 10:11:13;;;;;;;5.93;5.33;;;;;;;-143.84;75.97;45163.31;5052792;28;20888;-77
2021/12/31 10:13:41;;;;;;;6.47;5.80;;;;;;;-143.84;75.83;45150.00;5052851;28;20451;-77
2021/12/31 10:16:20;;;;;;;6.20;5.70;;;;;;;-143.84;74.26;45161.41;5053405;28;20430;-77
2021/12/31 10:18:49;;;;;;;6.17;5.53;;;;;;;-143.84;74.30;45159.50;5052866;28;20443;-77
2021/12/31 10:21:20;;;;;;;6.10;5.33;;;;;;;-143.84;74.53;45174.75;5052727;28;20505;-77
2021/12/31 10:23:48;;;;;;;6.80;6.20;;;;;;;-143.84;73.70;45140.47;5052844;28;20528;-77
2021/12/31 10:26:18;;;;;;;6.03;5.27;;;;;;;-143.84;73.08;45121.44;5053217;28;20958;-77
2021/12/31 10:28:57;;;;;;;7.50;5.50;;;;;;;-143.84;72.50;45163.31;5035231;28;20992;-77
2021/12/31 10:31:24;;;;;;;11.40;5.90;;;;;;;-143.84;73.62;45178.56;5052700;28;20513;-76
2021/12/31 10:33:52;;;;;;;4.90;4.50;;;;;;;-143.84;72.62;45169.03;5052070;28;20444;-77
2021/12/31 10:36:34;;;;;;;5.73;4.70;;;;;;;-143.84;72.93;45170.94;5052456;28;20794;-76
2021/12/31 10:39:15;;;;;;;5.87;5.40;;;;;;;-143.84;73.44;45178.56;5052259;28;20441;-76
2021/12/31 10:41:42;;;;;;;6.63;6.03;;;;;;;-143.84;73.25;45163.31;5052400;28;20441;-77
2021/12/31 10:44:09;;;;;;;6.87;6.20;;;;;;;-143.84;73.92;45159.50;5051065;28;20448;-76
2021/12/31 10:46:36;;;;;;;10.60;6.80;;;;;;;-143.84;73.81;45150.00;5051778;28;20437;-76
2021/12/31 10:49:09;;;;;;;6.37;5.37;;;;;;;-143.84;72.88;45121.44;5051646;28;20958;-76
2021/12/31 10:51:40;;;;;;;6.20;5.60;;;;;;;-143.84;71.74;45144.28;5051771;28;21096;-76
2021/12/31 10:54:28;;;;;;;6.70;5.43;;;;;;;-143.84;71.41;45136.66;5051913;28;20439;-76
2021/12/31 10:56:56;;;;;;;6.47;5.50;;;;;;;-143.84;71.11;45169.03;5051925;28;20441;-76
2021/12/31 10:59:24;;;;;;;4.90;4.50;;;;;;;-143.84;69.83;45176.66;5052026;28;20499;-76
2021/12/31 11:01:52;;;;;;;6.40;5.00;;;;;;;-143.84;69.82;45159.50;5052082;28;20445;-76
2021/12/31 11:04:21;;;;;;;5.50;5.00;;;;;;;-143.84;69.70;45140.47;5051851;28;20447;-76
2021/12/31 11:06:50;;;;;;;4.53;4.13;;;;;;;-143.84;69.49;45151.91;5051867;28;20530;-76
2021/12/31 11:09:22;;;;;;;7.23;5.50;;;;;;;-143.84;68.67;45161.41;5051743;28;20441;-76
2021/12/31 11:11:49;;;;;;;4.53;4.13;;;;;;;-143.84;69.27;45174.75;5052136;28;20497;-76
2021/12/31 11:14:17;;;;;;;5.90;5.30;;;;;;;-143.84;69.98;45174.75;5051476;28;21021;-76
2021/12/31 11:16:45;;;;;;;5.80;5.20;;;;;;;-143.84;69.91;45148.09;5051748;28;20537;-76
2021/12/31 11:19:13;;;;;;;6.73;5.90;;;;;;;-143.84;69.81;45151.91;5051668;28;20448;-77